sensor_id;sensor_type;location;lat;lon;timestamp;pressure;altitude;pressure_sealevel;temperature;humidity
36828;BME280;22766;48.042;11.192;2024-01-10T00:01:57;95599.94;;;-7.85;100.00
36828;BME280;22766;48.042;11.192;2024-01-10T00:04:24;95593.94;;;-7.78;100.00
36828;BME280;22766;48.042;11.192;2024-01-10T00:06:51;95593.75;;;-7.69;100.00
36828;BME280;22766;48.042;11.192;2024-01-10T00:09:18;95592.13;;;-7.71;100.00
36828;BME280;22766;48.042;11.192;2024-01-10T00:11:45;95592.03;;;-7.67;100.00
36828;BME280;22766;48.042;11.192;2024-01-10T00:14:11;95602.94;;;-7.68;100.00
36828;BME280;22766;48.042;11.192;2024-01-10T00:16:38;95595.25;;;-7.62;100.00
36828;BME280;22766;48.042;11.192;2024-01-10T00:19:05;95591.75;;;-7.53;100.00
36828;BME280;22766;48.042;11.192;2024-01-10T00:21:32;95591.66;;;-7.47;100.00
36828;BME280;22766;48.042;11.192;2024-01-10T00:23:59;95600.53;;;-7.32;100.00
36828;BME280;22766;48.042;11.192;2024-01-10T00:26:26;95595.00;;;-7.48;100.00
36828;BME280;22766;48.042;11.192;2024-01-10T00:28:53;95595.00;;;-7.48;100.00
36828;BME280;22766;48.042;11.192;2024-01-10T00:31:29;95597.38;;;-7.42;100.00
36828;BME280;22766;48.042;11.192;2024-01-10T00:33:56;95599.69;;;-7.33;100.00
36828;BME280;22766;48.042;11.192;2024-01-10T00:36:23;95599.50;;;-7.24;100.00
36828;BME280;22766;48.042;11.192;2024-01-10T00:38:50;95589.16;;;-7.09;100.00
36828;BME280;22766;48.042;11.192;2024-01-10T00:41:16;95595.13;;;-7.14;100.00
36828;BME280;22766;48.042;11.192;2024-01-10T00:43:43;95591.63;;;-7.07;100.00
36828;BME280;22766;48.042;11.192;2024-01-10T00:46:10;95599.97;;;-7.07;100.00
36828;BME280;22766;48.042;11.192;2024-01-10T00:48:37;95598.22;;;-7.03;100.00
36828;BME280;22766;48.042;11.192;2024-01-10T00:51:04;95595.56;;;-6.97;100.00
36828;BME280;22766;48.042;11.192;2024-01-10T00:53:35;95596.41;;;-6.98;100.00
36828;BME280;22766;48.042;11.192;2024-01-10T00:56:02;95604.66;;;-6.93;100.00
36828;BME280;22766;48.042;11.192;2024-01-10T00:58:29;95599.50;;;-6.87;100.00
36828;BME280;22766;48.042;11.192;2024-01-10T01:00:56;95608.84;;;-6.92;100.00
36828;BME280;22766;48.042;11.192;2024-01-10T01:03:23;95607.06;;;-6.89;100.00
36828;BME280;22766;48.042;11.192;2024-01-10T01:05:50;95603.13;;;-6.99;100.00
36828;BME280;22766;48.042;11.192;2024-01-10T01:08:17;95598.88;;;-6.97;100.00
36828;BME280;22766;48.042;11.192;2024-01-10T01:10:44;95601.25;;;-6.91;100.00
36828;BME280;22766;48.042;11.192;2024-01-10T01:13:10;95598.66;;;-6.86;100.00
36828;BME280;22766;48.042;11.192;2024-01-10T01:15:37;95601.19;;;-6.86;100.00
36828;BME280;22766;48.042;11.192;2024-01-10T01:18:04;95604.34;;;-6.78;100.00
36828;BME280;22766;48.042;11.192;2024-01-10T01:20:32;95599.63;;;-6.92;100.00
36828;BME280;22766;48.042;11.192;2024-01-10T01:22:59;95599.38;;;-6.81;100.00
36828;BME280;22766;48.042;11.192;2024-01-10T01:25:26;95600.97;;;-6.77;100.00
36828;BME280;22766;48.042;11.192;2024-01-10T01:27:52;95598.28;;;-6.70;100.00
36828;BME280;22766;48.042;11.192;2024-01-10T01:30:19;95601.78;;;-6.77;100.00
36828;BME280;22766;48.042;11.192;2024-01-10T01:32:48;95602.78;;;-6.84;100.00
36828;BME280;22766;48.042;11.192;2024-01-10T01:35:15;95597.78;;;-6.85;100.00
36828;BME280;22766;48.042;11.192;2024-01-10T01:37:48;95606.03;;;-6.79;100.00
36828;BME280;22766;48.042;11.192;2024-01-10T01:40:15;95609.41;;;-6.81;100.00
36828;BME280;22766;48.042;11.192;2024-01-10T01:42:44;95609.47;;;-6.83;100.00
36828;BME280;22766;48.042;11.192;2024-01-10T01:45:12;95610.31;;;-6.84;100.00
36828;BME280;22766;48.042;11.192;2024-01-10T01:47:40;95613.69;;;-6.85;100.00
36828;BME280;22766;48.042;11.192;2024-01-10T01:50:08;95611.78;;;-6.75;100.00
36828;BME280;22766;48.042;11.192;2024-01-10T01:52:36;95611.94;;;-6.81;100.00
36828;BME280;22766;48.042;11.192;2024-01-10T01:55:04;95616.44;;;-6.95;100.00
36828;BME280;22766;48.042;11.192;2024-01-10T01:57:32;95610.75;;;-7.03;100.00
36828;BME280;22766;48.042;11.192;2024-01-10T02:00:00;95615.78;;;-7.03;100.00
36828;BME280;22766;48.042;11.192;2024-01-10T02:02:28;95615.84;;;-7.06;100.00
36828;BME280;22766;48.042;11.192;2024-01-10T02:04:55;95614.28;;;-7.12;100.00
36828;BME280;22766;48.042;11.192;2024-01-10T02:07:22;95617.66;;;-7.13;100.00
36828;BME280;22766;48.042;11.192;2024-01-10T02:09:49;95618.28;;;-7.03;100.00
36828;BME280;22766;48.042;11.192;2024-01-10T02:12:16;95619.00;;;-6.98;100.00
36828;BME280;22766;48.042;11.192;2024-01-10T02:14:42;95624.13;;;-7.03;100.00
36828;BME280;22766;48.042;11.192;2024-01-10T02:17:09;95619.97;;;-7.04;100.00
36828;BME280;22766;48.042;11.192;2024-01-10T02:19:37;95619.16;;;-7.06;100.00
36828;BME280;22766;48.042;11.192;2024-01-10T02:22:04;95619.31;;;-7.12;100.00
36828;BME280;22766;48.042;11.192;2024-01-10T02:24:31;95621.81;;;-7.12;100.00
36828;BME280;22766;48.042;11.192;2024-01-10T02:26:58;95620.84;;;-7.05;100.00
36828;BME280;22766;48.042;11.192;2024-01-10T02:29:25;95623.09;;;-6.94;100.00
36828;BME280;22766;48.042;11.192;2024-01-10T02:31:53;95623.06;;;-6.93;100.00
36828;BME280;22766;48.042;11.192;2024-01-10T02:34:20;95622.13;;;-6.89;100.00
36828;BME280;22766;48.042;11.192;2024-01-10T02:36:47;95623.03;;;-6.91;100.00
36828;BME280;22766;48.042;11.192;2024-01-10T02:39:13;95629.75;;;-6.93;100.00
36828;BME280;22766;48.042;11.192;2024-01-10T02:41:40;95623.19;;;-6.97;100.00
36828;BME280;22766;48.042;11.192;2024-01-10T02:44:07;95623.19;;;-6.99;100.00
36828;BME280;22766;48.042;11.192;2024-01-10T02:46:34;95622.50;;;-7.05;100.00
36828;BME280;22766;48.042;11.192;2024-01-10T02:49:01;95623.44;;;-7.09;100.00
36828;BME280;22766;48.042;11.192;2024-01-10T02:51:31;95618.59;;;-7.17;100.00
36828;BME280;22766;48.042;11.192;2024-01-10T02:53:59;95623.66;;;-7.20;100.00
36828;BME280;22766;48.042;11.192;2024-01-10T02:56:27;95622.84;;;-7.20;100.00
36828;BME280;22766;48.042;11.192;2024-01-10T02:58:54;95613.63;;;-7.20;100.00
36828;BME280;22766;48.042;11.192;2024-01-10T03:01:21;95615.34;;;-7.22;100.00
36828;BME280;22766;48.042;11.192;2024-01-10T03:03:48;95612.06;;;-7.24;100.00
36828;BME280;22766;48.042;11.192;2024-01-10T03:06:14;95612.84;;;-7.23;100.00
36828;BME280;22766;48.042;11.192;2024-01-10T03:08:41;95612.13;;;-7.28;100.00
36828;BME280;22766;48.042;11.192;2024-01-10T03:11:08;95605.41;;;-7.26;100.00
36828;BME280;22766;48.042;11.192;2024-01-10T03:13:35;95605.41;;;-7.26;100.00
36828;BME280;22766;48.042;11.192;2024-01-10T03:16:02;95602.09;;;-7.28;100.00
36828;BME280;22766;48.042;11.192;2024-01-10T03:18:29;95603.84;;;-7.32;100.00
36828;BME280;22766;48.042;11.192;2024-01-10T03:20:56;95600.59;;;-7.35;100.00
36828;BME280;22766;48.042;11.192;2024-01-10T03:23:23;95596.38;;;-7.33;100.00
36828;BME280;22766;48.042;11.192;2024-01-10T03:25:49;95593.94;;;-7.38;100.00
36828;BME280;22766;48.042;11.192;2024-01-10T03:28:16;95598.09;;;-7.35;100.00
36828;BME280;22766;48.042;11.192;2024-01-10T03:30:44;95595.59;;;-7.37;100.00
36828;BME280;22766;48.042;11.192;2024-01-10T03:33:11;95590.56;;;-7.35;100.00
36828;BME280;22766;48.042;11.192;2024-01-10T03:35:38;95582.16;;;-7.34;100.00
36828;BME280;22766;48.042;11.192;2024-01-10T03:38:05;95585.56;;;-7.37;100.00
36828;BME280;22766;48.042;11.192;2024-01-10T03:40:31;95592.19;;;-7.34;100.00
36828;BME280;22766;48.042;11.192;2024-01-10T03:42:58;95587.31;;;-7.40;100.00
36828;BME280;22766;48.042;11.192;2024-01-10T03:45:25;95588.22;;;-7.44;100.00
36828;BME280;22766;48.042;11.192;2024-01-10T03:47:52;95586.59;;;-7.45;100.00
36828;BME280;22766;48.042;11.192;2024-01-10T03:50:19;95588.25;;;-7.46;100.00
36828;BME280;22766;48.042;11.192;2024-01-10T03:52:46;95599.81;;;-7.37;100.00
36828;BME280;22766;48.042;11.192;2024-01-10T03:55:13;95591.38;;;-7.35;100.00
36828;BME280;22766;48.042;11.192;2024-01-10T03:57:42;95600.56;;;-7.34;100.00
36828;BME280;22766;48.042;11.192;2024-01-10T04:00:09;95591.34;;;-7.33;100.00
36828;BME280;22766;48.042;11.192;2024-01-10T04:02:37;95603.84;;;-7.32;100.00
36828;BME280;22766;48.042;11.192;2024-01-10T04:05:10;95588.84;;;-7.33;100.00
36828;BME280;22766;48.042;11.192;2024-01-10T04:07:42;95592.28;;;-7.37;100.00
36828;BME280;22766;48.042;11.192;2024-01-10T04:10:11;95588.78;;;-7.30;100.00
36828;BME280;22766;48.042;11.192;2024-01-10T04:12:41;95590.28;;;-7.23;100.00
36828;BME280;22766;48.042;11.192;2024-01-10T04:15:08;95590.91;;;-7.14;100.00
36828;BME280;22766;48.042;11.192;2024-01-10T04:17:35;95590.16;;;-7.17;100.00
36828;BME280;22766;48.042;11.192;2024-01-10T04:20:02;95589.38;;;-7.19;100.00
36828;BME280;22766;48.042;11.192;2024-01-10T04:22:30;95594.34;;;-7.16;100.00
36828;BME280;22766;48.042;11.192;2024-01-10T04:24:58;95595.91;;;-7.12;100.00
36828;BME280;22766;48.042;11.192;2024-01-10T04:27:25;95592.38;;;-7.04;100.00
36828;BME280;22766;48.042;11.192;2024-01-10T04:29:53;95588.06;;;-6.99;100.00
36828;BME280;22766;48.042;11.192;2024-01-10T04:32:21;95596.41;;;-6.98;100.00
36828;BME280;22766;48.042;11.192;2024-01-10T04:34:48;95594.13;;;-7.07;100.00
36828;BME280;22766;48.042;11.192;2024-01-10T04:37:14;95592.38;;;-7.04;100.00
36828;BME280;22766;48.042;11.192;2024-01-10T04:39:41;95591.38;;;-6.97;100.00
36828;BME280;22766;48.042;11.192;2024-01-10T04:42:11;95595.56;;;-6.97;100.00
36828;BME280;22766;48.042;11.192;2024-01-10T04:44:38;95596.50;;;-7.01;100.00
36828;BME280;22766;48.042;11.192;2024-01-10T04:47:05;95587.34;;;-7.04;100.00
36828;BME280;22766;48.042;11.192;2024-01-10T04:49:32;95593.25;;;-7.06;100.00
36828;BME280;22766;48.042;11.192;2024-01-10T04:51:59;95586.66;;;-7.10;100.00
36828;BME280;22766;48.042;11.192;2024-01-10T04:54:26;95587.53;;;-7.11;100.00
36828;BME280;22766;48.042;11.192;2024-01-10T04:56:52;95588.41;;;-7.14;100.00
36828;BME280;22766;48.042;11.192;2024-01-10T04:59:19;95588.44;;;-7.15;100.00
36828;BME280;22766;48.042;11.192;2024-01-10T05:01:46;95590.91;;;-7.12;100.00
36828;BME280;22766;48.042;11.192;2024-01-10T05:04:13;95586.69;;;-7.12;100.00
36828;BME280;22766;48.042;11.192;2024-01-10T05:06:40;95593.47;;;-7.15;100.00
36828;BME280;22766;48.042;11.192;2024-01-10T05:09:07;95597.50;;;-7.10;100.00
36828;BME280;22766;48.042;11.192;2024-01-10T05:11:34;95594.16;;;-7.10;100.00
36828;BME280;22766;48.042;11.192;2024-01-10T05:14:02;95595.00;;;-7.10;100.00
36828;BME280;22766;48.042;11.192;2024-01-10T05:16:29;95589.19;;;-7.12;100.00
36828;BME280;22766;48.042;11.192;2024-01-10T05:18:57;95590.66;;;-7.02;100.00
36828;BME280;22766;48.042;11.192;2024-01-10T05:21:27;95589.03;;;-7.04;100.00
36828;BME280;22766;48.042;11.192;2024-01-10T05:23:53;95595.75;;;-7.05;100.00
36828;BME280;22766;48.042;11.192;2024-01-10T05:26:20;95596.72;;;-7.12;100.00
36828;BME280;22766;48.042;11.192;2024-01-10T05:28:47;95592.53;;;-7.11;100.00
36828;BME280;22766;48.042;11.192;2024-01-10T05:31:14;95596.06;;;-7.20;100.00
36828;BME280;22766;48.042;11.192;2024-01-10T05:33:41;95600.31;;;-7.22;100.00
36828;BME280;22766;48.042;11.192;2024-01-10T05:36:09;95596.22;;;-7.26;100.00
36828;BME280;22766;48.042;11.192;2024-01-10T05:38:39;95591.34;;;-7.33;100.00
36828;BME280;22766;48.042;11.192;2024-01-10T05:41:09;95601.50;;;-7.39;100.00
36828;BME280;22766;48.042;11.192;2024-01-10T05:43:36;95598.97;;;-7.38;100.00
36828;BME280;22766;48.042;11.192;2024-01-10T05:46:03;95603.16;;;-7.38;100.00
36828;BME280;22766;48.042;11.192;2024-01-10T05:48:31;95603.94;;;-7.36;100.00
36828;BME280;22766;48.042;11.192;2024-01-10T05:50:59;95598.94;;;-7.36;100.00
36828;BME280;22766;48.042;11.192;2024-01-10T05:53:26;95606.53;;;-7.39;100.00
36828;BME280;22766;48.042;11.192;2024-01-10T05:55:53;95605.78;;;-7.44;100.00
36828;BME280;22766;48.042;11.192;2024-01-10T05:58:20;95611.75;;;-7.48;100.00
36828;BME280;22766;48.042;11.192;2024-01-10T06:00:47;95609.22;;;-7.48;100.00
36828;BME280;22766;48.042;11.192;2024-01-10T06:03:14;95610.94;;;-7.52;100.00
36828;BME280;22766;48.042;11.192;2024-01-10T06:05:41;95617.63;;;-7.51;100.00
36828;BME280;22766;48.042;11.192;2024-01-10T06:08:08;95615.91;;;-7.49;100.00
36828;BME280;22766;48.042;11.192;2024-01-10T06:10:35;95604.22;;;-7.48;100.00
36828;BME280;22766;48.042;11.192;2024-01-10T06:13:04;95610.91;;;-7.49;100.00
36828;BME280;22766;48.042;11.192;2024-01-10T06:15:30;95608.59;;;-7.58;100.00
36828;BME280;22766;48.042;11.192;2024-01-10T06:17:58;95606.16;;;-7.63;100.00
36828;BME280;22766;48.042;11.192;2024-01-10T06:20:25;95611.41;;;-7.75;100.00
36828;BME280;22766;48.042;11.192;2024-01-10T06:22:52;95611.56;;;-7.82;100.00
36828;BME280;22766;48.042;11.192;2024-01-10T06:25:19;95613.28;;;-7.86;100.00
36828;BME280;22766;48.042;11.192;2024-01-10T06:27:46;95616.97;;;-8.02;100.00
36828;BME280;22766;48.042;11.192;2024-01-10T06:30:13;95623.75;;;-8.08;100.00
36828;BME280;22766;48.042;11.192;2024-01-10T06:32:40;95630.63;;;-8.19;100.00
36828;BME280;22766;48.042;11.192;2024-01-10T06:35:07;95631.63;;;-8.28;100.00
36828;BME280;22766;48.042;11.192;2024-01-10T06:37:37;95632.34;;;-8.23;100.00
36828;BME280;22766;48.042;11.192;2024-01-10T06:40:05;95631.78;;;-8.37;100.00
36828;BME280;22766;48.042;11.192;2024-01-10T06:42:32;95633.78;;;-8.57;100.00
36828;BME280;22766;48.042;11.192;2024-01-10T06:44:59;95635.41;;;-8.54;100.00
36828;BME280;22766;48.042;11.192;2024-01-10T06:47:26;95644.75;;;-8.66;100.00
36828;BME280;22766;48.042;11.192;2024-01-10T06:49:53;95645.66;;;-8.68;100.00
36828;BME280;22766;48.042;11.192;2024-01-10T06:52:20;95648.03;;;-8.60;100.00
36828;BME280;22766;48.042;11.192;2024-01-10T06:54:47;95642.97;;;-8.57;100.00
36828;BME280;22766;48.042;11.192;2024-01-10T06:57:14;95647.09;;;-8.53;100.00
36828;BME280;22766;48.042;11.192;2024-01-10T06:59:41;95637.03;;;-8.52;100.00
36828;BME280;22766;48.042;11.192;2024-01-10T07:02:08;95637.72;;;-8.42;100.00
36828;BME280;22766;48.042;11.192;2024-01-10T07:04:37;95636.28;;;-8.55;100.00
36828;BME280;22766;48.042;11.192;2024-01-10T07:07:04;95640.31;;;-8.48;100.00
36828;BME280;22766;48.042;11.192;2024-01-10T07:09:31;95642.06;;;-8.52;100.00
36828;BME280;22766;48.042;11.192;2024-01-10T07:11:57;95636.34;;;-8.60;100.00
36828;BME280;22766;48.042;11.192;2024-01-10T07:14:24;95647.19;;;-8.59;100.00
36828;BME280;22766;48.042;11.192;2024-01-10T07:16:51;95644.03;;;-8.74;100.00
36828;BME280;22766;48.042;11.192;2024-01-10T07:19:18;95644.69;;;-8.59;100.00
36828;BME280;22766;48.042;11.192;2024-01-10T07:21:45;95652.25;;;-8.63;100.00
36828;BME280;22766;48.042;11.192;2024-01-10T07:24:12;95648.97;;;-8.68;100.00
36828;BME280;22766;48.042;11.192;2024-01-10T07:26:38;95650.63;;;-8.67;100.00
36828;BME280;22766;48.042;11.192;2024-01-10T07:29:05;95653.16;;;-8.68;100.00
36828;BME280;22766;48.042;11.192;2024-01-10T07:31:35;95652.19;;;-8.59;100.00
36828;BME280;22766;48.042;11.192;2024-01-10T07:34:02;95649.53;;;-8.50;100.00
36828;BME280;22766;48.042;11.192;2024-01-10T07:36:33;95655.19;;;-8.39;100.00
36828;BME280;22766;48.042;11.192;2024-01-10T07:39:02;95645.03;;;-8.30;100.00
36828;BME280;22766;48.042;11.192;2024-01-10T07:41:30;95652.47;;;-8.26;100.00
36828;BME280;22766;48.042;11.192;2024-01-10T07:43:57;95649.03;;;-8.22;100.00
36828;BME280;22766;48.042;11.192;2024-01-10T07:46:24;95647.16;;;-8.11;100.00
36828;BME280;22766;48.042;11.192;2024-01-10T07:48:53;95641.06;;;-7.96;100.00
36828;BME280;22766;48.042;11.192;2024-01-10T07:51:20;95657.59;;;-7.88;100.00
36828;BME280;22766;48.042;11.192;2024-01-10T07:53:48;95650.69;;;-7.75;100.00
36828;BME280;22766;48.042;11.192;2024-01-10T07:56:15;95658.66;;;-7.55;100.00
36828;BME280;22766;48.042;11.192;2024-01-10T07:58:41;95657.66;;;-7.48;100.00
36828;BME280;22766;48.042;11.192;2024-01-10T08:01:08;95660.94;;;-7.43;100.00
36828;BME280;22766;48.042;11.192;2024-01-10T08:03:37;95656.59;;;-7.36;100.00
36828;BME280;22766;48.042;11.192;2024-01-10T08:06:05;95661.38;;;-7.24;100.00
36828;BME280;22766;48.042;11.192;2024-01-10T08:08:46;95662.91;;;-7.17;100.00
36828;BME280;22766;48.042;11.192;2024-01-10T08:11:13;95658.66;;;-7.14;100.00
36828;BME280;22766;48.042;11.192;2024-01-10T08:13:39;95659.13;;;-6.97;100.00
36828;BME280;22766;48.042;11.192;2024-01-10T08:16:06;95666.31;;;-6.82;100.00
36828;BME280;22766;48.042;11.192;2024-01-10T08:18:35;95661.38;;;-6.85;100.00
36828;BME280;22766;48.042;11.192;2024-01-10T08:21:02;95662.88;;;-6.78;100.00
36828;BME280;22766;48.042;11.192;2024-01-10T08:23:30;95662.34;;;-6.90;100.00
36828;BME280;22766;48.042;11.192;2024-01-10T08:25:57;95667.31;;;-6.89;100.00
36828;BME280;22766;48.042;11.192;2024-01-10T08:28:24;95664.88;;;-6.92;100.00
36828;BME280;22766;48.042;11.192;2024-01-10T08:30:52;95665.72;;;-6.93;100.00
36828;BME280;22766;48.042;11.192;2024-01-10T08:33:25;95672.97;;;-6.79;100.00
36828;BME280;22766;48.042;11.192;2024-01-10T08:35:52;95671.72;;;-6.61;100.00
36828;BME280;22766;48.042;11.192;2024-01-10T08:38:20;95674.75;;;-6.47;100.00
36828;BME280;22766;48.042;11.192;2024-01-10T08:40:47;95680.47;;;-6.41;100.00
36828;BME280;22766;48.042;11.192;2024-01-10T08:43:14;95680.78;;;-5.86;100.00
36828;BME280;22766;48.042;11.192;2024-01-10T08:45:41;95676.50;;;-5.22;100.00
36828;BME280;22766;48.042;11.192;2024-01-10T08:48:07;95679.22;;;-4.99;100.00
36828;BME280;22766;48.042;11.192;2024-01-10T08:50:36;95681.72;;;-4.98;100.00
36828;BME280;22766;48.042;11.192;2024-01-10T08:53:03;95681.50;;;-4.62;100.00
36828;BME280;22766;48.042;11.192;2024-01-10T08:55:32;95677.69;;;-4.48;100.00
36828;BME280;22766;48.042;11.192;2024-01-10T08:57:58;95682.91;;;-4.26;100.00
36828;BME280;22766;48.042;11.192;2024-01-10T09:00:25;95682.97;;;-3.77;100.00
36828;BME280;22766;48.042;11.192;2024-01-10T09:02:52;95689.63;;;-3.74;100.00
36828;BME280;22766;48.042;11.192;2024-01-10T09:05:20;95690.22;;;-3.93;100.00
36828;BME280;22766;48.042;11.192;2024-01-10T09:07:48;95690.13;;;-3.90;100.00
36828;BME280;22766;48.042;11.192;2024-01-10T09:10:16;95692.16;;;-4.27;100.00
36828;BME280;22766;48.042;11.192;2024-01-10T09:12:43;95694.41;;;-4.45;100.00
36828;BME280;22766;48.042;11.192;2024-01-10T09:15:12;95691.06;;;-4.18;100.00
36828;BME280;22766;48.042;11.192;2024-01-10T09:17:42;95692.84;;;-3.96;100.00
36828;BME280;22766;48.042;11.192;2024-01-10T09:20:09;95694.03;;;-3.81;100.00
36828;BME280;22766;48.042;11.192;2024-01-10T09:22:37;95689.44;;;-2.98;100.00
36828;BME280;22766;48.042;11.192;2024-01-10T09:25:07;95698.09;;;-2.37;100.00
36828;BME280;22766;48.042;11.192;2024-01-10T09:27:35;95697.91;;;-1.89;100.00
36828;BME280;22766;48.042;11.192;2024-01-10T09:30:02;95702.88;;;-2.29;100.00
36828;BME280;22766;48.042;11.192;2024-01-10T09:32:30;95703.88;;;-1.50;100.00
36828;BME280;22766;48.042;11.192;2024-01-10T09:34:57;95693.34;;;-0.63;100.00
36828;BME280;22766;48.042;11.192;2024-01-10T09:37:24;95698.03;;;-0.19;100.00
36828;BME280;22766;48.042;11.192;2024-01-10T09:39:51;95700.44;;;0.54;100.00
36828;BME280;22766;48.042;11.192;2024-01-10T09:42:20;95708.34;;;0.14;92.88
36828;BME280;22766;48.042;11.192;2024-01-10T09:44:51;95709.31;;;0.46;97.11
36828;BME280;22766;48.042;11.192;2024-01-10T09:47:20;95705.22;;;0.60;94.92
36828;BME280;22766;48.042;11.192;2024-01-10T09:49:47;95711.13;;;1.11;91.14
36828;BME280;22766;48.042;11.192;2024-01-10T09:52:23;95710.63;;;1.04;89.33
36828;BME280;22766;48.042;11.192;2024-01-10T09:54:54;95719.25;;;0.84;90.31
36828;BME280;22766;48.042;11.192;2024-01-10T09:57:23;95720.31;;;0.46;94.19
36828;BME280;22766;48.042;11.192;2024-01-10T09:59:53;95712.06;;;1.25;83.87
36828;BME280;22766;48.042;11.192;2024-01-10T10:02:22;95709.88;;;1.66;78.40
36828;BME280;22766;48.042;11.192;2024-01-10T10:05:04;95714.16;;;1.97;78.37
36828;BME280;22766;48.042;11.192;2024-01-10T10:07:51;95710.34;;;2.49;73.47
36828;BME280;22766;48.042;11.192;2024-01-10T10:10:18;95700.91;;;2.06;69.93
36828;BME280;22766;48.042;11.192;2024-01-10T10:12:49;95699.56;;;1.69;77.50
36828;BME280;22766;48.042;11.192;2024-01-10T10:15:23;95697.56;;;2.05;76.12
36828;BME280;22766;48.042;11.192;2024-01-10T10:17:53;95697.84;;;2.15;66.76
36828;BME280;22766;48.042;11.192;2024-01-10T10:20:25;95692.97;;;1.96;68.89
36828;BME280;22766;48.042;11.192;2024-01-10T10:25:31;95700.19;;;1.09;78.44
36828;BME280;22766;48.042;11.192;2024-01-10T10:28:02;95704.50;;;1.08;82.56
36828;BME280;22766;48.042;11.192;2024-01-10T10:30:31;95711.78;;;1.94;79.18
36828;BME280;22766;48.042;11.192;2024-01-10T10:33:02;95713.22;;;2.29;71.82
36828;BME280;22766;48.042;11.192;2024-01-10T10:35:29;95705.59;;;2.13;68.08
36828;BME280;22766;48.042;11.192;2024-01-10T10:38:07;95713.09;;;2.46;68.13
36828;BME280;22766;48.042;11.192;2024-01-10T10:40:36;95716.69;;;2.28;67.68
36828;BME280;22766;48.042;11.192;2024-01-10T10:43:04;95716.94;;;2.08;67.64
36828;BME280;22766;48.042;11.192;2024-01-10T10:45:32;95714.56;;;1.89;69.15
36828;BME280;22766;48.042;11.192;2024-01-10T10:48:01;95712.16;;;2.17;76.05
36828;BME280;22766;48.042;11.192;2024-01-10T10:50:33;95715.31;;;2.07;73.80
36828;BME280;22766;48.042;11.192;2024-01-10T10:53:03;95715.53;;;2.18;72.29
36828;BME280;22766;48.042;11.192;2024-01-10T10:55:31;95711.47;;;1.84;70.01
36828;BME280;22766;48.042;11.192;2024-01-10T10:58:01;95716.88;;;1.94;71.46
36828;BME280;22766;48.042;11.192;2024-01-10T11:00:37;95714.06;;;1.98;69.42
36828;BME280;22766;48.042;11.192;2024-01-10T11:03:05;95709.81;;;1.83;67.18
36828;BME280;22766;48.042;11.192;2024-01-10T11:05:34;95711.91;;;1.28;72.59
36828;BME280;22766;48.042;11.192;2024-01-10T11:08:04;95707.19;;;0.88;76.68
36828;BME280;22766;48.042;11.192;2024-01-10T11:10:33;95709.97;;;1.01;77.58
36828;BME280;22766;48.042;11.192;2024-01-10T11:16:24;95707.25;;;1.36;73.67
36828;BME280;22766;48.042;11.192;2024-01-10T11:22:06;95702.56;;;2.22;66.84
36828;BME280;22766;48.042;11.192;2024-01-10T11:24:36;95706.19;;;2.92;64.89
36828;BME280;22766;48.042;11.192;2024-01-10T11:27:10;95703.09;;;3.29;61.97
36828;BME280;22766;48.042;11.192;2024-01-10T11:29:39;95701.81;;;3.50;62.82
36828;BME280;22766;48.042;11.192;2024-01-10T11:32:07;95701.31;;;4.12;66.03
36828;BME280;22766;48.042;11.192;2024-01-10T11:34:36;95697.59;;;4.57;60.69
36828;BME280;22766;48.042;11.192;2024-01-10T11:37:10;95699.91;;;5.12;54.01
36828;BME280;22766;48.042;11.192;2024-01-10T11:39:41;95698.34;;;4.32;54.49
36828;BME280;22766;48.042;11.192;2024-01-10T11:42:11;95701.75;;;4.58;55.29
36828;BME280;22766;48.042;11.192;2024-01-10T11:44:48;95709.25;;;4.61;54.52
36828;BME280;22766;48.042;11.192;2024-01-10T11:47:19;95709.75;;;4.00;57.48
36828;BME280;22766;48.042;11.192;2024-01-10T11:49:57;95712.81;;;4.19;56.87
36828;BME280;22766;48.042;11.192;2024-01-10T11:52:32;95707.63;;;4.07;57.45
36828;BME280;22766;48.042;11.192;2024-01-10T11:55:00;95705.91;;;4.34;56.81
36828;BME280;22766;48.042;11.192;2024-01-10T11:57:28;95704.44;;;4.30;56.32
36828;BME280;22766;48.042;11.192;2024-01-10T11:59:58;95703.44;;;4.06;57.89
36828;BME280;22766;48.042;11.192;2024-01-10T12:02:30;95705.53;;;4.13;55.55
36828;BME280;22766;48.042;11.192;2024-01-10T12:04:58;95708.22;;;3.15;61.56
36828;BME280;22766;48.042;11.192;2024-01-10T12:07:25;95707.69;;;3.38;62.80
36828;BME280;22766;48.042;11.192;2024-01-10T12:09:52;95697.84;;;4.40;57.93
36828;BME280;22766;48.042;11.192;2024-01-10T12:12:19;95703.88;;;4.12;57.13
36828;BME280;22766;48.042;11.192;2024-01-10T12:14:46;95701.75;;;4.58;57.01
36828;BME280;22766;48.042;11.192;2024-01-10T12:17:13;95706.09;;;4.83;55.56
36828;BME280;22766;48.042;11.192;2024-01-10T12:19:40;95693.06;;;4.48;55.27
36828;BME280;22766;48.042;11.192;2024-01-10T12:22:12;95694.06;;;4.97;53.64
36828;BME280;22766;48.042;11.192;2024-01-10T12:24:48;95705.09;;;5.48;52.20
36828;BME280;22766;48.042;11.192;2024-01-10T12:27:17;95703.28;;;5.99;50.49
36828;BME280;22766;48.042;11.192;2024-01-10T12:29:52;95709.31;;;4.86;51.90
36828;BME280;22766;48.042;11.192;2024-01-10T12:32:21;95701.38;;;4.64;53.16
36828;BME280;22766;48.042;11.192;2024-01-10T12:35:03;95705.38;;;4.68;53.74
36828;BME280;22766;48.042;11.192;2024-01-10T12:37:31;95703.06;;;4.12;54.80
36828;BME280;22766;48.042;11.192;2024-01-10T12:39:58;95698.31;;;3.79;55.88
36828;BME280;22766;48.042;11.192;2024-01-10T12:42:25;95701.13;;;3.89;57.97
36828;BME280;22766;48.042;11.192;2024-01-10T12:44:53;95708.75;;;3.48;58.84
36828;BME280;22766;48.042;11.192;2024-01-10T12:47:21;95699.31;;;3.76;58.54
36828;BME280;22766;48.042;11.192;2024-01-10T12:49:48;95699.66;;;3.99;58.54
36828;BME280;22766;48.042;11.192;2024-01-10T12:52:15;95700.38;;;4.27;55.41
36828;BME280;22766;48.042;11.192;2024-01-10T12:54:47;95693.00;;;4.23;54.52
36828;BME280;22766;48.042;11.192;2024-01-10T12:57:14;95693.47;;;3.74;57.11
36828;BME280;22766;48.042;11.192;2024-01-10T12:59:41;95694.66;;;3.83;57.20